sensor_id;sensor_type;location;lat;lon;timestamp;P1;durP1;ratioP1;P2;durP2;ratioP2
41434;SDS011;27177;22.262;114.192;2022-11-15T00:01:07;13.18;;;7.80;;
41434;SDS011;27177;22.262;114.192;2022-11-15T00:03:35;15.50;;;8.93;;
41434;SDS011;27177;22.262;114.192;2022-11-15T00:06:02;13.52;;;8.88;;
41434;SDS011;27177;22.262;114.192;2022-11-15T00:08:30;16.77;;;8.77;;
41434;SDS011;27177;22.262;114.192;2022-11-15T00:10:58;19.92;;;9.10;;
41434;SDS011;27177;22.262;114.192;2022-11-15T00:13:26;15.82;;;9.05;;
41434;SDS011;27177;22.262;114.192;2022-11-15T00:15:56;15.27;;;9.65;;
41434;SDS011;27177;22.262;114.192;2022-11-15T00:18:26;22.67;;;10.65;;
41434;SDS011;27177;22.262;114.192;2022-11-15T00:20:55;15.52;;;9.43;;
41434;SDS011;27177;22.262;114.192;2022-11-15T00:23:27;13.55;;;8.98;;
41434;SDS011;27177;22.262;114.192;2022-11-15T00:25:57;22.00;;;9.95;;
41434;SDS011;27177;22.262;114.192;2022-11-15T00:28:24;15.10;;;9.05;;
41434;SDS011;27177;22.262;114.192;2022-11-15T00:30:51;15.27;;;9.30;;
41434;SDS011;27177;22.262;114.192;2022-11-15T00:33:18;16.85;;;10.18;;
41434;SDS011;27177;22.262;114.192;2022-11-15T00:38:20;17.35;;;9.45;;
41434;SDS011;27177;22.262;114.192;2022-11-15T00:43:22;15.55;;;9.88;;
41434;SDS011;27177;22.262;114.192;2022-11-15T00:48:24;18.83;;;10.00;;
41434;SDS011;27177;22.262;114.192;2022-11-15T00:50:51;13.05;;;9.15;;
41434;SDS011;27177;22.262;114.192;2022-11-15T00:53:18;18.40;;;9.25;;
41434;SDS011;27177;22.262;114.192;2022-11-15T00:55:45;19.23;;;9.50;;
41434;SDS011;27177;22.262;114.192;2022-11-15T00:58:12;13.00;;;9.68;;
41434;SDS011;27177;22.262;114.192;2022-11-15T01:00:39;16.55;;;9.50;;
41434;SDS011;27177;22.262;114.192;2022-11-15T01:03:06;18.08;;;9.95;;
41434;SDS011;27177;22.262;114.192;2022-11-15T01:05:32;16.85;;;9.50;;
41434;SDS011;27177;22.262;114.192;2022-11-15T01:07:59;21.33;;;10.32;;
41434;SDS011;27177;22.262;114.192;2022-11-15T01:10:26;15.88;;;10.65;;
41434;SDS011;27177;22.262;114.192;2022-11-15T01:12:52;14.48;;;8.52;;
41434;SDS011;27177;22.262;114.192;2022-11-15T01:15:19;17.55;;;9.23;;
41434;SDS011;27177;22.262;114.192;2022-11-15T01:17:46;20.55;;;9.43;;
41434;SDS011;27177;22.262;114.192;2022-11-15T01:20:12;15.63;;;10.07;;
41434;SDS011;27177;22.262;114.192;2022-11-15T01:22:39;16.80;;;10.65;;
41434;SDS011;27177;22.262;114.192;2022-11-15T01:25:06;13.35;;;9.25;;
41434;SDS011;27177;22.262;114.192;2022-11-15T01:32:34;21.98;;;11.05;;
41434;SDS011;27177;22.262;114.192;2022-11-15T01:35:01;19.40;;;11.20;;
41434;SDS011;27177;22.262;114.192;2022-11-15T01:37:28;18.50;;;11.43;;
41434;SDS011;27177;22.262;114.192;2022-11-15T01:39:54;18.13;;;10.68;;
41434;SDS011;27177;22.262;114.192;2022-11-15T01:42:21;25.13;;;10.75;;
41434;SDS011;27177;22.262;114.192;2022-11-15T01:44:51;20.90;;;10.88;;
41434;SDS011;27177;22.262;114.192;2022-11-15T01:49:52;20.20;;;11.48;;
41434;SDS011;27177;22.262;114.192;2022-11-15T01:52:20;19.65;;;12.20;;
41434;SDS011;27177;22.262;114.192;2022-11-15T01:54:50;17.92;;;11.93;;
41434;SDS011;27177;22.262;114.192;2022-11-15T01:57:21;19.55;;;11.75;;
41434;SDS011;27177;22.262;114.192;2022-11-15T01:59:48;18.35;;;10.93;;
41434;SDS011;27177;22.262;114.192;2022-11-15T02:02:15;21.27;;;11.95;;
41434;SDS011;27177;22.262;114.192;2022-11-15T02:04:43;22.25;;;11.55;;
41434;SDS011;27177;22.262;114.192;2022-11-15T02:07:13;18.08;;;11.23;;
41434;SDS011;27177;22.262;114.192;2022-11-15T02:12:11;23.70;;;11.90;;
41434;SDS011;27177;22.262;114.192;2022-11-15T02:14:42;19.58;;;12.18;;
41434;SDS011;27177;22.262;114.192;2022-11-15T02:36:39;19.30;;;12.30;;
41434;SDS011;27177;22.262;114.192;2022-11-15T02:42:11;18.20;;;11.40;;
41434;SDS011;27177;22.262;114.192;2022-11-15T02:45:19;17.27;;;10.90;;
41434;SDS011;27177;22.262;114.192;2022-11-15T02:47:54;19.38;;;11.60;;
41434;SDS011;27177;22.262;114.192;2022-11-15T02:50:25;21.42;;;11.95;;
41434;SDS011;27177;22.262;114.192;2022-11-15T02:52:55;18.45;;;11.30;;
41434;SDS011;27177;22.262;114.192;2022-11-15T03:01:11;26.55;;;11.30;;
41434;SDS011;27177;22.262;114.192;2022-11-15T03:04:16;20.77;;;11.50;;
41434;SDS011;27177;22.262;114.192;2022-11-15T03:06:49;20.33;;;11.85;;
41434;SDS011;27177;22.262;114.192;2022-11-15T03:18:41;16.00;;;11.25;;
41434;SDS011;27177;22.262;114.192;2022-11-15T03:21:13;23.73;;;11.35;;
41434;SDS011;27177;22.262;114.192;2022-11-15T03:23:43;19.10;;;12.15;;
41434;SDS011;27177;22.262;114.192;2022-11-15T03:32:13;18.77;;;11.60;;
41434;SDS011;27177;22.262;114.192;2022-11-15T03:35:05;19.30;;;11.80;;
41434;SDS011;27177;22.262;114.192;2022-11-15T03:38:22;17.33;;;11.27;;
41434;SDS011;27177;22.262;114.192;2022-11-15T03:40:57;17.70;;;11.25;;
41434;SDS011;27177;22.262;114.192;2022-11-15T03:43:43;18.50;;;11.82;;
41434;SDS011;27177;22.262;114.192;2022-11-15T03:46:14;19.25;;;11.38;;
41434;SDS011;27177;22.262;114.192;2022-11-15T03:48:50;16.27;;;11.30;;
41434;SDS011;27177;22.262;114.192;2022-11-15T03:51:20;18.42;;;11.70;;
41434;SDS011;27177;22.262;114.192;2022-11-15T03:53:47;17.90;;;10.88;;
41434;SDS011;27177;22.262;114.192;2022-11-15T03:56:14;20.42;;;11.90;;
41434;SDS011;27177;22.262;114.192;2022-11-15T03:58:40;21.02;;;12.50;;
41434;SDS011;27177;22.262;114.192;2022-11-15T04:01:07;21.48;;;13.32;;
41434;SDS011;27177;22.262;114.192;2022-11-15T04:03:34;19.35;;;11.88;;
41434;SDS011;27177;22.262;114.192;2022-11-15T04:06:00;21.40;;;12.20;;
41434;SDS011;27177;22.262;114.192;2022-11-15T04:08:27;22.05;;;13.05;;
41434;SDS011;27177;22.262;114.192;2022-11-15T04:10:54;15.70;;;11.70;;
41434;SDS011;27177;22.262;114.192;2022-11-15T04:13:20;16.27;;;9.68;;
41434;SDS011;27177;22.262;114.192;2022-11-15T04:15:47;23.67;;;11.07;;
41434;SDS011;27177;22.262;114.192;2022-11-15T04:18:14;16.95;;;9.88;;
41434;SDS011;27177;22.262;114.192;2022-11-15T04:20:40;15.95;;;9.65;;
41434;SDS011;27177;22.262;114.192;2022-11-15T04:23:25;19.63;;;9.32;;
41434;SDS011;27177;22.262;114.192;2022-11-15T04:26:18;16.60;;;10.38;;
41434;SDS011;27177;22.262;114.192;2022-11-15T04:28:46;18.33;;;10.45;;
41434;SDS011;27177;22.262;114.192;2022-11-15T04:31:32;16.80;;;10.13;;
41434;SDS011;27177;22.262;114.192;2022-11-15T04:33:58;18.27;;;11.10;;
41434;SDS011;27177;22.262;114.192;2022-11-15T04:36:25;17.95;;;10.98;;
41434;SDS011;27177;22.262;114.192;2022-11-15T04:39:10;20.35;;;10.85;;
41434;SDS011;27177;22.262;114.192;2022-11-15T04:41:36;19.02;;;10.30;;
41434;SDS011;27177;22.262;114.192;2022-11-15T04:44:03;15.73;;;10.38;;
41434;SDS011;27177;22.262;114.192;2022-11-15T04:46:36;12.88;;;9.20;;
41434;SDS011;27177;22.262;114.192;2022-11-15T04:49:03;15.15;;;8.95;;
41434;SDS011;27177;22.262;114.192;2022-11-15T04:51:30;14.02;;;8.85;;
41434;SDS011;27177;22.262;114.192;2022-11-15T04:53:56;14.65;;;8.90;;
41434;SDS011;27177;22.262;114.192;2022-11-15T04:56:23;15.02;;;9.35;;
41434;SDS011;27177;22.262;114.192;2022-11-15T04:58:50;11.93;;;8.27;;
41434;SDS011;27177;22.262;114.192;2022-11-15T05:01:17;18.45;;;9.30;;
41434;SDS011;27177;22.262;114.192;2022-11-15T05:03:44;15.93;;;9.70;;
41434;SDS011;27177;22.262;114.192;2022-11-15T05:06:29;15.05;;;9.07;;
41434;SDS011;27177;22.262;114.192;2022-11-15T05:08:56;14.52;;;10.07;;
41434;SDS011;27177;22.262;114.192;2022-11-15T05:11:23;16.38;;;9.75;;
41434;SDS011;27177;22.262;114.192;2022-11-15T05:13:52;15.65;;;10.30;;
41434;SDS011;27177;22.262;114.192;2022-11-15T05:16:18;13.25;;;9.52;;
41434;SDS011;27177;22.262;114.192;2022-11-15T05:18:45;14.85;;;9.38;;
41434;SDS011;27177;22.262;114.192;2022-11-15T05:21:13;15.45;;;9.30;;
41434;SDS011;27177;22.262;114.192;2022-11-15T05:30:14;14.55;;;9.82;;
41434;SDS011;27177;22.262;114.192;2022-11-15T05:32:42;14.10;;;10.02;;
41434;SDS011;27177;22.262;114.192;2022-11-15T05:35:12;15.73;;;9.57;;
41434;SDS011;27177;22.262;114.192;2022-11-15T05:37:52;17.15;;;9.60;;
41434;SDS011;27177;22.262;114.192;2022-11-15T05:40:19;15.50;;;9.60;;
41434;SDS011;27177;22.262;114.192;2022-11-15T05:42:46;13.38;;;9.77;;
41434;SDS011;27177;22.262;114.192;2022-11-15T05:45:13;18.40;;;10.23;;
41434;SDS011;27177;22.262;114.192;2022-11-15T05:47:41;15.15;;;9.45;;
41434;SDS011;27177;22.262;114.192;2022-11-15T05:50:08;15.18;;;9.85;;
41434;SDS011;27177;22.262;114.192;2022-11-15T05:52:39;11.55;;;8.40;;
41434;SDS011;27177;22.262;114.192;2022-11-15T05:55:06;15.07;;;9.43;;
41434;SDS011;27177;22.262;114.192;2022-11-15T05:57:35;15.00;;;9.35;;
41434;SDS011;27177;22.262;114.192;2022-11-15T06:00:02;14.77;;;9.50;;
41434;SDS011;27177;22.262;114.192;2022-11-15T06:02:30;13.27;;;10.15;;
41434;SDS011;27177;22.262;114.192;2022-11-15T06:04:56;15.35;;;9.65;;
41434;SDS011;27177;22.262;114.192;2022-11-15T06:07:23;16.80;;;9.93;;
41434;SDS011;27177;22.262;114.192;2022-11-15T06:09:50;15.13;;;9.38;;
41434;SDS011;27177;22.262;114.192;2022-11-15T06:12:17;18.23;;;9.48;;
41434;SDS011;27177;22.262;114.192;2022-11-15T06:14:45;16.65;;;9.68;;
41434;SDS011;27177;22.262;114.192;2022-11-15T06:17:11;13.93;;;9.90;;
41434;SDS011;27177;22.262;114.192;2022-11-15T06:19:38;17.05;;;10.07;;
41434;SDS011;27177;22.262;114.192;2022-11-15T06:22:05;15.18;;;9.40;;
41434;SDS011;27177;22.262;114.192;2022-11-15T06:24:32;16.13;;;10.25;;
41434;SDS011;27177;22.262;114.192;2022-11-15T06:26:59;16.38;;;10.15;;
41434;SDS011;27177;22.262;114.192;2022-11-15T06:29:25;14.00;;;9.98;;
41434;SDS011;27177;22.262;114.192;2022-11-15T06:31:52;18.02;;;10.68;;
41434;SDS011;27177;22.262;114.192;2022-11-15T06:34:19;16.88;;;11.68;;
41434;SDS011;27177;22.262;114.192;2022-11-15T06:36:45;18.77;;;10.50;;
41434;SDS011;27177;22.262;114.192;2022-11-15T06:39:12;15.48;;;10.25;;
41434;SDS011;27177;22.262;114.192;2022-11-15T06:41:39;15.65;;;10.60;;
41434;SDS011;27177;22.262;114.192;2022-11-15T06:44:05;17.52;;;11.18;;
41434;SDS011;27177;22.262;114.192;2022-11-15T06:46:32;18.48;;;11.30;;
41434;SDS011;27177;22.262;114.192;2022-11-15T06:48:59;17.98;;;11.35;;
41434;SDS011;27177;22.262;114.192;2022-11-15T06:51:25;21.25;;;11.85;;
41434;SDS011;27177;22.262;114.192;2022-11-15T06:53:52;21.15;;;11.30;;
41434;SDS011;27177;22.262;114.192;2022-11-15T06:56:19;17.77;;;11.43;;
41434;SDS011;27177;22.262;114.192;2022-11-15T06:58:46;17.17;;;10.57;;
41434;SDS011;27177;22.262;114.192;2022-11-15T07:01:13;17.63;;;10.73;;
41434;SDS011;27177;22.262;114.192;2022-11-15T07:03:40;20.02;;;11.32;;
41434;SDS011;27177;22.262;114.192;2022-11-15T07:06:08;18.45;;;11.40;;
41434;SDS011;27177;22.262;114.192;2022-11-15T07:08:35;17.38;;;11.75;;
41434;SDS011;27177;22.262;114.192;2022-11-15T07:11:03;26.05;;;12.48;;
41434;SDS011;27177;22.262;114.192;2022-11-15T07:13:32;18.83;;;11.75;;
41434;SDS011;27177;22.262;114.192;2022-11-15T07:16:15;22.70;;;11.82;;
41434;SDS011;27177;22.262;114.192;2022-11-15T07:18:42;19.33;;;11.05;;
41434;SDS011;27177;22.262;114.192;2022-11-15T07:21:09;22.73;;;12.45;;
41434;SDS011;27177;22.262;114.192;2022-11-15T07:23:38;19.33;;;12.52;;
41434;SDS011;27177;22.262;114.192;2022-11-15T07:26:05;18.00;;;12.48;;
41434;SDS011;27177;22.262;114.192;2022-11-15T07:28:33;23.02;;;12.38;;
41434;SDS011;27177;22.262;114.192;2022-11-15T07:31:04;20.42;;;12.70;;
41434;SDS011;27177;22.262;114.192;2022-11-15T07:33:32;18.38;;;13.25;;
41434;SDS011;27177;22.262;114.192;2022-11-15T07:36:02;21.27;;;13.45;;
41434;SDS011;27177;22.262;114.192;2022-11-15T07:38:31;20.42;;;13.13;;
41434;SDS011;27177;22.262;114.192;2022-11-15T07:40:59;19.00;;;11.82;;
41434;SDS011;27177;22.262;114.192;2022-11-15T07:43:27;19.40;;;13.77;;
41434;SDS011;27177;22.262;114.192;2022-11-15T07:45:55;21.38;;;13.13;;
41434;SDS011;27177;22.262;114.192;2022-11-15T07:48:22;20.10;;;13.38;;
41434;SDS011;27177;22.262;114.192;2022-11-15T07:50:49;24.85;;;13.88;;
41434;SDS011;27177;22.262;114.192;2022-11-15T07:53:16;18.25;;;12.45;;
41434;SDS011;27177;22.262;114.192;2022-11-15T07:55:42;25.25;;;12.90;;
41434;SDS011;27177;22.262;114.192;2022-11-15T07:58:10;18.92;;;13.50;;
41434;SDS011;27177;22.262;114.192;2022-11-15T08:00:37;20.52;;;13.20;;
41434;SDS011;27177;22.262;114.192;2022-11-15T08:03:05;22.00;;;14.68;;
41434;SDS011;27177;22.262;114.192;2022-11-15T08:05:32;22.38;;;13.27;;
41434;SDS011;27177;22.262;114.192;2022-11-15T08:08:00;21.52;;;13.23;;
41434;SDS011;27177;22.262;114.192;2022-11-15T08:10:27;21.60;;;14.27;;
41434;SDS011;27177;22.262;114.192;2022-11-15T08:13:00;20.98;;;13.63;;
41434;SDS011;27177;22.262;114.192;2022-11-15T08:15:29;21.63;;;13.63;;
41434;SDS011;27177;22.262;114.192;2022-11-15T08:18:00;22.58;;;14.27;;
41434;SDS011;27177;22.262;114.192;2022-11-15T08:20:29;24.17;;;13.70;;
41434;SDS011;27177;22.262;114.192;2022-11-15T08:22:59;20.33;;;13.70;;
41434;SDS011;27177;22.262;114.192;2022-11-15T08:25:28;19.10;;;13.45;;
41434;SDS011;27177;22.262;114.192;2022-11-15T08:27:57;23.83;;;13.80;;
41434;SDS011;27177;22.262;114.192;2022-11-15T08:30:26;21.50;;;13.55;;
41434;SDS011;27177;22.262;114.192;2022-11-15T08:32:53;21.70;;;14.07;;
41434;SDS011;27177;22.262;114.192;2022-11-15T08:35:23;18.77;;;13.75;;
41434;SDS011;27177;22.262;114.192;2022-11-15T08:37:52;23.48;;;14.27;;
41434;SDS011;27177;22.262;114.192;2022-11-15T08:40:20;19.10;;;13.73;;
41434;SDS011;27177;22.262;114.192;2022-11-15T08:42:47;22.13;;;13.70;;
41434;SDS011;27177;22.262;114.192;2022-11-15T08:45:14;22.00;;;14.50;;
41434;SDS011;27177;22.262;114.192;2022-11-15T08:47:41;19.48;;;13.60;;
41434;SDS011;27177;22.262;114.192;2022-11-15T08:50:08;22.40;;;13.95;;
41434;SDS011;27177;22.262;114.192;2022-11-15T08:52:35;23.42;;;14.45;;
41434;SDS011;27177;22.262;114.192;2022-11-15T08:55:01;21.10;;;13.05;;
41434;SDS011;27177;22.262;114.192;2022-11-15T08:57:29;22.55;;;13.98;;
41434;SDS011;27177;22.262;114.192;2022-11-15T08:59:56;22.70;;;14.25;;
41434;SDS011;27177;22.262;114.192;2022-11-15T09:02:23;25.83;;;14.35;;
41434;SDS011;27177;22.262;114.192;2022-11-15T09:04:50;23.92;;;14.77;;
41434;SDS011;27177;22.262;114.192;2022-11-15T09:07:16;20.60;;;14.32;;
41434;SDS011;27177;22.262;114.192;2022-11-15T09:09:43;26.13;;;15.32;;
41434;SDS011;27177;22.262;114.192;2022-11-15T09:12:10;26.17;;;15.45;;
41434;SDS011;27177;22.262;114.192;2022-11-15T09:14:37;20.35;;;14.95;;
41434;SDS011;27177;22.262;114.192;2022-11-15T09:17:06;24.55;;;15.55;;
41434;SDS011;27177;22.262;114.192;2022-11-15T09:19:34;21.92;;;14.93;;
41434;SDS011;27177;22.262;114.192;2022-11-15T09:22:04;24.35;;;15.35;;
41434;SDS011;27177;22.262;114.192;2022-11-15T09:24:33;23.63;;;14.43;;
41434;SDS011;27177;22.262;114.192;2022-11-15T09:27:00;22.15;;;15.48;;
41434;SDS011;27177;22.262;114.192;2022-11-15T09:32:33;21.20;;;15.00;;
41434;SDS011;27177;22.262;114.192;2022-11-15T09:35:28;22.60;;;14.32;;
41434;SDS011;27177;22.262;114.192;2022-11-15T09:37:54;21.27;;;14.50;;
41434;SDS011;27177;22.262;114.192;2022-11-15T09:53:28;20.88;;;14.85;;
41434;SDS011;27177;22.262;114.192;2022-11-15T10:06:32;19.48;;;13.70;;
41434;SDS011;27177;22.262;114.192;2022-11-15T10:09:06;20.38;;;14.05;;
41434;SDS011;27177;22.262;114.192;2022-11-15T10:11:46;17.60;;;13.88;;
41434;SDS011;27177;22.262;114.192;2022-11-15T10:29:49;22.95;;;15.45;;
41434;SDS011;27177;22.262;114.192;2022-11-15T10:34:51;29.63;;;16.65;;
41434;SDS011;27177;22.262;114.192;2022-11-15T10:50:31;25.17;;;16.38;;
41434;SDS011;27177;22.262;114.192;2022-11-15T10:52:58;27.38;;;16.65;;
41434;SDS011;27177;22.262;114.192;2022-11-15T10:55:29;26.30;;;17.63;;
41434;SDS011;27177;22.262;114.192;2022-11-15T11:00:47;24.80;;;16.55;;
41434;SDS011;27177;22.262;114.192;2022-11-15T11:06:07;21.08;;;14.75;;
41434;SDS011;27177;22.262;114.192;2022-11-15T11:08:39;25.10;;;17.02;;
41434;SDS011;27177;22.262;114.192;2022-11-15T11:11:20;24.75;;;17.38;;
41434;SDS011;27177;22.262;114.192;2022-11-15T11:13:47;23.42;;;16.13;;
41434;SDS011;27177;22.262;114.192;2022-11-15T11:19:14;24.25;;;16.83;;
41434;SDS011;27177;22.262;114.192;2022-11-15T11:25:44;23.33;;;16.27;;
41434;SDS011;27177;22.262;114.192;2022-11-15T11:41:44;24.13;;;16.85;;
41434;SDS011;27177;22.262;114.192;2022-11-15T11:47:09;27.95;;;16.95;;
41434;SDS011;27177;22.262;114.192;2022-11-15T11:49:39;24.70;;;18.02;;
41434;SDS011;27177;22.262;114.192;2022-11-15T12:54:49;27.23;;;19.17;;
41434;SDS011;27177;22.262;114.192;2022-11-15T13:22:43;26.35;;;18.40;;
41434;SDS011;27177;22.262;114.192;2022-11-15T13:28:09;26.08;;;18.05;;
41434;SDS011;27177;22.262;114.192;2022-11-15T13:30:39;25.13;;;17.50;;
41434;SDS011;27177;22.262;114.192;2022-11-15T13:33:16;24.60;;;18.45;;
41434;SDS011;27177;22.262;114.192;2022-11-15T13:36:08;24.40;;;17.02;;
41434;SDS011;27177;22.262;114.192;2022-11-15T13:38:45;25.58;;;18.85;;
41434;SDS011;27177;22.262;114.192;2022-11-15T13:41:29;23.40;;;18.27;;
41434;SDS011;27177;22.262;114.192;2022-11-15T13:43:58;28.40;;;19.25;;
41434;SDS011;27177;22.262;114.192;2022-11-15T13:46:26;32.53;;;19.67;;
41434;SDS011;27177;22.262;114.192;2022-11-15T13:48:58;29.38;;;20.00;;
41434;SDS011;27177;22.262;114.192;2022-11-15T13:57:01;23.38;;;17.02;;
41434;SDS011;27177;22.262;114.192;2022-11-15T13:59:35;24.42;;;17.52;;
41434;SDS011;27177;22.262;114.192;2022-11-15T14:02:13;26.30;;;18.73;;
41434;SDS011;27177;22.262;114.192;2022-11-15T14:04:55;26.17;;;18.58;;
41434;SDS011;27177;22.262;114.192;2022-11-15T14:07:52;24.25;;;18.73;;
41434;SDS011;27177;22.262;114.192;2022-11-15T14:10:30;23.75;;;18.15;;
41434;SDS011;27177;22.262;114.192;2022-11-15T14:12:58;24.27;;;17.73;;
41434;SDS011;27177;22.262;114.192;2022-11-15T14:18:00;24.50;;;16.60;;
41434;SDS011;27177;22.262;114.192;2022-11-15T14:20:29;25.95;;;18.20;;
41434;SDS011;27177;22.262;114.192;2022-11-15T14:23:01;24.90;;;17.88;;
41434;SDS011;27177;22.262;114.192;2022-11-15T14:25:33;26.38;;;17.92;;
41434;SDS011;27177;22.262;114.192;2022-11-15T14:30:40;26.58;;;18.40;;
41434;SDS011;27177;22.262;114.192;2022-11-15T14:33:30;27.10;;;17.15;;
41434;SDS011;27177;22.262;114.192;2022-11-15T14:38:31;25.45;;;17.35;;
41434;SDS011;27177;22.262;114.192;2022-11-15T14:40:58;31.98;;;19.38;;
41434;SDS011;27177;22.262;114.192;2022-11-15T14:43:25;33.17;;;19.92;;
41434;SDS011;27177;22.262;114.192;2022-11-15T14:45:52;27.15;;;18.45;;
41434;SDS011;27177;22.262;114.192;2022-11-15T14:48:18;26.77;;;18.13;;
41434;SDS011;27177;22.262;114.192;2022-11-15T14:50:45;24.08;;;17.85;;
41434;SDS011;27177;22.262;114.192;2022-11-15T14:53:13;29.95;;;17.42;;
41434;SDS011;27177;22.262;114.192;2022-11-15T14:55:42;25.98;;;18.17;;
41434;SDS011;27177;22.262;114.192;2022-11-15T14:58:09;30.48;;;19.30;;
41434;SDS011;27177;22.262;114.192;2022-11-15T15:00:37;25.30;;;17.38;;
41434;SDS011;27177;22.262;114.192;2022-11-15T15:03:05;25.10;;;16.73;;
41434;SDS011;27177;22.262;114.192;2022-11-15T15:05:33;22.98;;;15.52;;
41434;SDS011;27177;22.262;114.192;2022-11-15T15:08:05;22.80;;;16.58;;
41434;SDS011;27177;22.262;114.192;2022-11-15T15:10:33;22.88;;;16.05;;
41434;SDS011;27177;22.262;114.192;2022-11-15T15:13:02;28.80;;;16.90;;
41434;SDS011;27177;22.262;114.192;2022-11-15T15:15:33;23.17;;;16.35;;
41434;SDS011;27177;22.262;114.192;2022-11-15T15:18:02;22.17;;;15.63;;
41434;SDS011;27177;22.262;114.192;2022-11-15T15:20:30;23.17;;;15.32;;
41434;SDS011;27177;22.262;114.192;2022-11-15T15:22:58;24.63;;;16.13;;
41434;SDS011;27177;22.262;114.192;2022-11-15T15:28:00;25.67;;;16.90;;
41434;SDS011;27177;22.262;114.192;2022-11-15T15:30:28;19.88;;;15.18;;
41434;SDS011;27177;22.262;114.192;2022-11-15T15:32:56;24.02;;;16.17;;
41434;SDS011;27177;22.262;114.192;2022-11-15T15:35:23;21.88;;;16.65;;
41434;SDS011;27177;22.262;114.192;2022-11-15T15:37:54;18.60;;;13.27;;
41434;SDS011;27177;22.262;114.192;2022-11-15T15:40:21;24.27;;;15.98;;
41434;SDS011;27177;22.262;114.192;2022-11-15T15:42:49;24.30;;;15.30;;
41434;SDS011;27177;22.262;114.192;2022-11-15T15:45:16;21.30;;;15.88;;
41434;SDS011;27177;22.262;114.192;2022-11-15T15:47:44;20.30;;;15.00;;
41434;SDS011;27177;22.262;114.192;2022-11-15T15:52:51;25.25;;;16.15;;
41434;SDS011;27177;22.262;114.192;2022-11-15T15:55:19;24.38;;;14.60;;
41434;SDS011;27177;22.262;114.192;2022-11-15T15:57:46;23.13;;;14.77;;
41434;SDS011;27177;22.262;114.192;2022-11-15T16:00:13;26.25;;;14.90;;
41434;SDS011;27177;22.262;114.192;2022-11-15T16:02:40;18.35;;;14.45;;
41434;SDS011;27177;22.262;114.192;2022-11-15T16:05:08;25.08;;;15.63;;
41434;SDS011;27177;22.262;114.192;2022-11-15T16:07:35;22.60;;;14.70;;
41434;SDS011;27177;22.262;114.192;2022-11-15T16:10:14;27.60;;;16.40;;
41434;SDS011;27177;22.262;114.192;2022-11-15T16:12:45;23.50;;;15.00;;
41434;SDS011;27177;22.262;114.192;2022-11-15T16:15:12;24.90;;;15.35;;
41434;SDS011;27177;22.262;114.192;2022-11-15T16:17:40;20.20;;;15.25;;
41434;SDS011;27177;22.262;114.192;2022-11-15T16:20:35;26.42;;;15.65;;
41434;SDS011;27177;22.262;114.192;2022-11-15T16:23:10;22.08;;;15.30;;
41434;SDS011;27177;22.262;114.192;2022-11-15T16:25:45;27.02;;;15.70;;
41434;SDS011;27177;22.262;114.192;2022-11-15T16:28:30;23.63;;;15.48;;
41434;SDS011;27177;22.262;114.192;2022-11-15T16:33:35;24.75;;;16.85;;
41434;SDS011;27177;22.262;114.192;2022-11-15T16:36:03;25.08;;;14.32;;
41434;SDS011;27177;22.262;114.192;2022-11-15T16:38:32;21.10;;;16.20;;
41434;SDS011;27177;22.262;114.192;2022-11-15T16:40:58;22.42;;;15.32;;
41434;SDS011;27177;22.262;114.192;2022-11-15T16:43:25;19.30;;;14.50;;
41434;SDS011;27177;22.262;114.192;2022-11-15T16:45:52;18.73;;;15.05;;
41434;SDS011;27177;22.262;114.192;2022-11-15T16:50:56;22.13;;;15.18;;
41434;SDS011;27177;22.262;114.192;2022-11-15T16:53:24;25.17;;;15.85;;
41434;SDS011;27177;22.262;114.192;2022-11-15T16:55:52;22.50;;;15.75;;
41434;SDS011;27177;22.262;114.192;2022-11-15T16:58:20;23.23;;;15.30;;
41434;SDS011;27177;22.262;114.192;2022-11-15T17:00:53;24.25;;;15.57;;
41434;SDS011;27177;22.262;114.192;2022-11-15T17:03:22;28.25;;;17.20;;
41434;SDS011;27177;22.262;114.192;2022-11-15T17:05:50;21.98;;;15.45;;
41434;SDS011;27177;22.262;114.192;2022-11-15T17:08:17;22.08;;;16.80;;
41434;SDS011;27177;22.262;114.192;2022-11-15T17:10:46;29.58;;;17.08;;
41434;SDS011;27177;22.262;114.192;2022-11-15T17:13:13;20.45;;;14.45;;
41434;SDS011;27177;22.262;114.192;2022-11-15T17:15:40;22.42;;;15.02;;
41434;SDS011;27177;22.262;114.192;2022-11-15T17:18:09;25.40;;;16.75;;
41434;SDS011;27177;22.262;114.192;2022-11-15T17:20:38;25.10;;;16.75;;
41434;SDS011;27177;22.262;114.192;2022-11-15T17:23:08;23.42;;;15.32;;
41434;SDS011;27177;22.262;114.192;2022-11-15T17:25:39;22.08;;;14.23;;
41434;SDS011;27177;22.262;114.192;2022-11-15T17:28:06;25.50;;;14.38;;
41434;SDS011;27177;22.262;114.192;2022-11-15T17:30:33;25.00;;;15.98;;
41434;SDS011;27177;22.262;114.192;2022-11-15T17:33:00;29.13;;;15.85;;
41434;SDS011;27177;22.262;114.192;2022-11-15T17:35:26;22.58;;;16.35;;
41434;SDS011;27177;22.262;114.192;2022-11-15T17:37:53;28.63;;;16.17;;
41434;SDS011;27177;22.262;114.192;2022-11-15T17:40:20;23.90;;;16.63;;
41434;SDS011;27177;22.262;114.192;2022-11-15T17:42:46;21.67;;;13.98;;
41434;SDS011;27177;22.262;114.192;2022-11-15T17:45:13;19.85;;;14.38;;
41434;SDS011;27177;22.262;114.192;2022-11-15T17:47:40;19.17;;;13.18;;
41434;SDS011;27177;22.262;114.192;2022-11-15T17:50:07;16.60;;;13.60;;
41434;SDS011;27177;22.262;114.192;2022-11-15T17:52:34;25.40;;;16.50;;
41434;SDS011;27177;22.262;114.192;2022-11-15T17:55:01;21.65;;;14.27;;
41434;SDS011;27177;22.262;114.192;2022-11-15T17:57:28;21.65;;;14.65;;
41434;SDS011;27177;22.262;114.192;2022-11-15T17:59:55;20.48;;;14.23;;
41434;SDS011;27177;22.262;114.192;2022-11-15T18:02:21;18.85;;;14.18;;
41434;SDS011;27177;22.262;114.192;2022-11-15T18:04:48;20.60;;;14.38;;
41434;SDS011;27177;22.262;114.192;2022-11-15T18:07:15;21.08;;;13.75;;
41434;SDS011;27177;22.262;114.192;2022-11-15T18:09:41;19.88;;;14.27;;
41434;SDS011;27177;22.262;114.192;2022-11-15T18:12:13;26.10;;;15.07;;
41434;SDS011;27177;22.262;114.192;2022-11-15T18:14:40;24.30;;;15.25;;
41434;SDS011;27177;22.262;114.192;2022-11-15T18:17:07;21.10;;;14.60;;
41434;SDS011;27177;22.262;114.192;2022-11-15T18:19:33;24.30;;;15.43;;
41434;SDS011;27177;22.262;114.192;2022-11-15T18:22:00;22.45;;;15.07;;
41434;SDS011;27177;22.262;114.192;2022-11-15T18:24:33;23.58;;;16.33;;
41434;SDS011;27177;22.262;114.192;2022-11-15T18:27:05;20.40;;;14.73;;
41434;SDS011;27177;22.262;114.192;2022-11-15T18:29:32;21.13;;;14.48;;
41434;SDS011;27177;22.262;114.192;2022-11-15T18:32:02;22.20;;;15.30;;
41434;SDS011;27177;22.262;114.192;2022-11-15T18:34:35;22.85;;;14.95;;
41434;SDS011;27177;22.262;114.192;2022-11-15T18:37:02;22.52;;;16.13;;
41434;SDS011;27177;22.262;114.192;2022-11-15T18:39:29;21.63;;;14.18;;
41434;SDS011;27177;22.262;114.192;2022-11-15T18:41:56;23.42;;;14.82;;